Time;durP1;ratioP1;P1;durP2;ratioP2;P2;SDS_P1;SDS_P2;PMS_P1;PMS_P2;Temp;Humidity;BMP_temperature;BMP_pressure;BME280_temperature;BME280_humidity;BME280_pressure;Samples;Min_cycle;Max_cycle;Signal;HPM_P1;HPM_P2
2021/07/30 00:00:07;;;;;;;16.27;12.32;;;24.50;77.80;;;;;;5002207;28;20418;-58
2021/07/30 00:02:34;;;;;;;15.32;11.20;;;24.40;78.80;;;;;;5002480;28;20034;-58
2021/07/30 00:05:01;;;;;;;13.18;11.30;;;24.40;79.10;;;;;;5008948;28;20034;-58
2021/07/30 00:07:27;;;;;;;14.07;12.48;;;24.50;79.60;;;;;;5010798;28;20046;-57
2021/07/30 00:09:54;;;;;;;14.98;11.88;;;24.40;80.30;;;;;;5011321;28;20025;-58
2021/07/30 00:12:39;;;;;;;13.95;12.43;;;24.40;80.40;;;;;;5012841;28;20378;-57
2021/07/30 00:15:06;;;;;;;16.02;12.82;;;24.30;80.70;;;;;;5011491;28;20525;-58
2021/07/30 00:17:34;;;;;;;14.02;11.77;;;24.40;80.20;;;;;;5011644;28;20049;-57
2021/07/30 00:20:05;;;;;;;15.30;11.70;;;24.50;80.00;;;;;;5012770;28;20478;-57
2021/07/30 00:22:31;;;;;;;15.80;11.80;;;24.50;79.70;;;;;;5012724;28;20046;-57
2021/07/30 00:24:58;;;;;;;14.27;11.52;;;24.50;79.10;;;;;;5012829;28;20030;-58
2021/07/30 00:27:24;;;;;;;16.58;12.73;;;24.60;78.70;;;;;;5012768;28;20042;-58
2021/07/30 00:29:51;;;;;;;12.43;11.02;;;24.50;78.80;;;;;;5012057;28;20046;-58
2021/07/30 00:32:18;;;;;;;20.13;11.57;;;24.50;79.00;;;;;;5011294;28;20046;-58
2021/07/30 00:34:44;;;;;;;15.20;12.20;;;24.50;78.80;;;;;;5010771;28;20038;-58
2021/07/30 00:37:11;;;;;;;13.40;11.25;;;24.50;78.60;;;;;;5010990;28;20057;-59
2021/07/30 00:39:37;;;;;;;14.23;10.63;;;24.50;78.40;;;;;;5010443;28;20041;-59
2021/07/30 00:42:04;;;;;;;13.00;11.27;;;24.50;78.20;;;;;;5009987;28;20049;-58
2021/07/30 00:44:31;;;;;;;15.75;12.68;;;24.50;77.90;;;;;;5010262;28;20037;-58
2021/07/30 00:46:58;;;;;;;15.13;10.93;;;24.50;77.80;;;;;;5011385;28;20517;-58
2021/07/30 00:49:25;;;;;;;11.68;10.48;;;24.50;77.80;;;;;;5011697;28;20506;-59
2021/07/30 00:51:52;;;;;;;13.63;10.55;;;24.40;77.70;;;;;;5012096;28;20042;-58
2021/07/30 00:54:19;;;;;;;12.55;10.15;;;24.50;77.80;;;;;;5012134;28;20057;-58
2021/07/30 00:56:47;;;;;;;20.23;12.35;;;24.50;77.90;;;;;;5012710;28;20056;-56
2021/07/30 00:59:14;;;;;;;13.27;11.15;;;24.50;77.80;;;;;;5012435;28;20033;-59
2021/07/30 01:01:40;;;;;;;11.70;10.48;;;24.60;77.70;;;;;;5012344;28;20057;-58
2021/07/30 01:04:07;;;;;;;13.50;11.20;;;24.60;77.60;;;;;;5012320;28;20034;-57
2021/07/30 01:06:34;;;;;;;15.30;11.23;;;24.50;77.50;;;;;;5011813;28;20053;-58
2021/07/30 01:09:00;;;;;;;11.95;10.75;;;24.50;77.60;;;;;;5012730;28;20390;-57
2021/07/30 01:11:27;;;;;;;17.50;10.40;;;24.40;78.10;;;;;;5011590;28;20058;-59
2021/07/30 01:13:53;;;;;;;13.95;11.40;;;24.40;78.30;;;;;;5012409;28;20030;-58
2021/07/30 01:16:19;;;;;;;16.73;10.75;;;24.40;78.10;;;;;;5011620;28;20060;-59
2021/07/30 01:18:46;;;;;;;13.18;9.90;;;24.40;78.20;;;;;;5014856;28;20056;-58
2021/07/30 01:21:23;;;;;;;14.75;11.75;;;24.50;77.80;;;;;;5015075;28;20402;-58
2021/07/30 01:23:51;;;;;;;14.30;11.18;;;24.50;77.50;;;;;;5015851;28;20057;-58
2021/07/30 01:26:19;;;;;;;13.52;10.63;;;24.40;77.50;;;;;;5015347;28;20049;-58
2021/07/30 01:28:46;;;;;;;15.07;10.63;;;24.50;77.20;;;;;;5015638;28;20033;-58
2021/07/30 01:31:12;;;;;;;12.77;10.48;;;24.50;76.90;;;;;;5015069;28;20073;-58
2021/07/30 01:33:39;;;;;;;12.20;10.10;;;24.40;76.90;;;;;;5015777;28;20041;-58
2021/07/30 01:36:05;;;;;;;13.30;10.05;;;24.40;77.30;;;;;;5015101;28;20486;-58
2021/07/30 01:38:32;;;;;;;12.07;10.40;;;24.40;77.50;;;;;;5014803;28;20042;-58
2021/07/30 01:41:20;;;;;;;12.18;10.60;;;24.40;77.70;;;;;;5015599;28;20069;-59
2021/07/30 01:43:45;;;;;;;12.40;9.80;;;24.40;77.50;;;;;;5014443;28;20046;-58
2021/07/30 01:46:12;;;;;;;11.68;10.35;;;24.50;77.30;;;;;;5014671;28;20387;-59
2021/07/30 01:48:38;;;;;;;11.95;10.20;;;24.50;77.10;;;;;;5015382;28;20042;-58
2021/07/30 01:51:06;;;;;;;12.55;10.27;;;24.50;77.30;;;;;;5015453;28;20049;-58
2021/07/30 01:53:33;;;;;;;13.70;10.50;;;24.50;77.30;;;;;;5014587;28;20406;-59
2021/07/30 01:56:08;;;;;;;19.48;12.57;;;24.50;77.30;;;;;;5014806;28;20042;-57
2021/07/30 01:58:36;;;;;;;12.93;10.07;;;24.30;77.90;;;;;;5014722;28;20046;-58
2021/07/30 02:01:03;;;;;;;15.00;9.88;;;24.40;77.60;;;;;;5015143;28;20034;-58
2021/07/30 02:03:30;;;;;;;11.13;9.25;;;24.40;77.70;;;;;;5014857;28;20367;-58
2021/07/30 02:05:57;;;;;;;13.80;10.25;;;24.40;77.50;;;;;;5015119;28;20486;-59
2021/07/30 02:08:23;;;;;;;14.93;10.45;;;24.40;77.60;;;;;;5014239;28;20053;-59
2021/07/30 02:10:50;;;;;;;13.05;9.55;;;24.50;77.50;;;;;;5014716;28;20033;-58
2021/07/30 02:16:02;;;;;;;11.82;10.30;;;24.40;77.40;;;;;;5014593;28;20054;-58
2021/07/30 02:18:28;;;;;;;13.63;10.23;;;24.40;77.60;;;;;;5014574;28;20046;-59
2021/07/30 02:20:54;;;;;;;11.90;9.70;;;24.50;77.50;;;;;;5014580;28;20030;-59
2021/07/30 02:23:21;;;;;;;11.88;10.05;;;24.60;77.30;;;;;;5014321;28;20053;-59
2021/07/30 02:25:47;;;;;;;13.50;9.48;;;24.60;77.00;;;;;;5013796;28;20038;-59
2021/07/30 02:28:14;;;;;;;10.20;9.15;;;24.60;77.00;;;;;;5014073;28;20042;-58
2021/07/30 02:30:40;;;;;;;12.50;10.25;;;24.60;77.10;;;;;;5014031;28;20374;-58
2021/07/30 02:33:07;;;;;;;12.00;9.75;;;24.60;77.20;;;;;;5014312;28;20057;-58
2021/07/30 02:35:34;;;;;;;15.85;9.60;;;24.60;77.20;;;;;;5014357;28;20041;-58
2021/07/30 02:38:01;;;;;;;13.73;10.85;;;24.60;77.10;;;;;;5014171;28;20041;-58
2021/07/30 02:40:27;;;;;;;13.52;10.25;;;24.60;77.10;;;;;;5013948;28;20406;-58
2021/07/30 02:42:54;;;;;;;13.90;9.88;;;24.60;77.10;;;;;;5014386;28;20418;-58
2021/07/30 02:45:20;;;;;;;13.88;10.15;;;24.60;77.10;;;;;;5013516;28;20042;-58
2021/07/30 02:47:47;;;;;;;13.82;10.27;;;24.60;77.30;;;;;;5013029;28;20041;-58
2021/07/30 02:50:13;;;;;;;11.50;9.68;;;24.60;77.60;;;;;;5013398;28;20052;-58
2021/07/30 02:52:40;;;;;;;12.85;10.60;;;24.50;77.70;;;;;;5013387;28;20045;-58
2021/07/30 02:55:06;;;;;;;13.07;10.25;;;24.50;78.30;;;;;;5013407;28;20034;-58
2021/07/30 02:57:33;;;;;;;15.73;12.23;;;24.40;78.80;;;;;;5014006;28;20498;-58
2021/07/30 02:59:59;;;;;;;13.32;11.32;;;24.40;79.40;;;;;;5014085;28;20030;-57
2021/07/30 03:02:26;;;;;;;12.68;10.32;;;24.30;80.20;;;;;;5013525;28;20045;-57
2021/07/30 03:04:52;;;;;;;11.88;10.63;;;24.20;81.60;;;;;;5013164;28;20049;-58
2021/07/30 03:07:19;;;;;;;13.73;12.18;;;24.10;81.50;;;;;;5013266;28;20053;-57
2021/07/30 03:09:45;;;;;;;15.43;11.63;;;24.10;81.90;;;;;;5013079;28;20042;-60
2021/07/30 03:12:12;;;;;;;13.93;11.18;;;24.00;82.60;;;;;;5012857;28;20577;-58
2021/07/30 03:14:38;;;;;;;13.85;11.75;;;23.80;83.40;;;;;;5013307;28;20042;-58
2021/07/30 03:17:06;;;;;;;12.98;11.13;;;23.80;83.80;;;;;;5012406;28;20060;-57
2021/07/30 03:19:33;;;;;;;12.32;10.57;;;23.70;84.20;;;;;;5012985;28;20049;-58
2021/07/30 03:21:59;;;;;;;13.27;11.13;;;23.70;84.80;;;;;;5013156;28;20041;-57
2021/07/30 03:24:26;;;;;;;13.25;11.68;;;23.70;84.70;;;;;;5013436;28;20042;-58
2021/07/30 03:26:52;;;;;;;12.48;10.70;;;23.60;84.90;;;;;;5012011;28;20402;-57
2021/07/30 03:29:20;;;;;;;15.68;11.88;;;23.70;85.20;;;;;;5013425;28;20026;-58
2021/07/30 03:31:48;;;;;;;13.23;10.95;;;23.70;85.10;;;;;;5012853;28;20045;-58
2021/07/30 03:34:15;;;;;;;15.38;11.93;;;23.60;85.30;;;;;;5012994;28;20489;-58
2021/07/30 03:36:42;;;;;;;16.80;12.63;;;23.50;85.60;;;;;;5013489;28;20467;-58
2021/07/30 03:39:09;;;;;;;14.93;11.82;;;23.50;85.70;;;;;;5011797;28;20061;-58
2021/07/30 03:41:37;;;;;;;13.15;11.38;;;23.50;85.80;;;;;;5012608;28;20061;-58
2021/07/30 03:44:04;;;;;;;13.85;10.65;;;23.50;85.70;;;;;;5012600;28;20065;-58
2021/07/30 03:46:30;;;;;;;15.65;12.50;;;23.40;86.10;;;;;;5012712;28;20482;-58
2021/07/30 03:48:57;;;;;;;16.33;12.25;;;23.40;86.40;;;;;;5012761;28;20398;-57
2021/07/30 03:51:23;;;;;;;14.15;12.02;;;23.40;86.50;;;;;;5013263;28;20034;-57
2021/07/30 03:53:50;;;;;;;15.48;11.55;;;23.40;86.40;;;;;;5013018;28;20033;-57
2021/07/30 03:56:17;;;;;;;13.65;11.23;;;23.40;86.40;;;;;;5013147;28;20394;-58
2021/07/30 03:58:45;;;;;;;14.45;10.98;;;23.50;86.30;;;;;;5012646;28;20034;-58
2021/07/30 04:01:12;;;;;;;10.88;9.77;;;23.50;86.60;;;;;;5012566;28;20042;-58
2021/07/30 04:03:39;;;;;;;15.20;10.52;;;23.50;86.20;;;;;;5012788;28;20065;-58
2021/07/30 04:06:06;;;;;;;13.90;10.73;;;23.50;86.80;;;;;;5012830;28;20057;-58
2021/07/30 04:08:33;;;;;;;11.93;10.48;;;23.50;85.20;;;;;;5011060;28;20042;-58
2021/07/30 04:11:00;;;;;;;11.48;10.15;;;23.50;84.60;;;;;;5012892;28;20474;-58
2021/07/30 04:13:27;;;;;;;12.40;9.95;;;23.60;83.90;;;;;;5012369;28;20478;-57
2021/07/30 04:15:53;;;;;;;18.02;10.82;;;23.50;83.60;;;;;;5012241;28;20410;-58
2021/07/30 04:18:20;;;;;;;13.10;10.43;;;23.50;83.80;;;;;;5013005;28;20061;-58
2021/07/30 04:20:46;;;;;;;11.35;9.82;;;23.50;83.60;;;;;;5012924;28;20042;-58
2021/07/30 04:23:13;;;;;;;11.82;10.43;;;23.50;83.50;;;;;;5012368;28;20065;-58
2021/07/30 04:25:40;;;;;;;15.10;11.10;;;23.60;83.50;;;;;;5012614;28;20034;-58
2021/07/30 04:28:07;;;;;;;13.77;11.30;;;23.70;83.30;;;;;;5012314;28;20038;-58
2021/07/30 04:30:34;;;;;;;12.80;10.95;;;23.70;83.40;;;;;;5011821;28;20045;-58
2021/07/30 04:33:00;;;;;;;13.48;11.45;;;23.70;83.20;;;;;;5011594;28;20042;-58
2021/07/30 04:35:27;;;;;;;15.55;12.27;;;23.70;83.10;;;;;;5012520;28;20045;-58
2021/07/30 04:37:56;;;;;;;13.10;11.73;;;23.80;83.20;;;;;;5012532;28;20045;-58
2021/07/30 04:40:23;;;;;;;18.15;11.73;;;23.70;83.60;;;;;;5012589;28;20034;-58
2021/07/30 04:42:50;;;;;;;14.50;12.00;;;23.70;83.80;;;;;;5012479;28;20057;-57
2021/07/30 04:45:16;;;;;;;14.15;11.85;;;23.60;84.60;;;;;;5012560;28;20046;-58
2021/07/30 04:47:42;;;;;;;14.52;12.65;;;23.70;84.60;;;;;;5012284;28;20363;-58
2021/07/30 04:50:09;;;;;;;15.77;12.90;;;23.80;84.20;;;;;;5012761;28;20513;-58
2021/07/30 04:52:36;;;;;;;14.02;12.57;;;23.80;83.90;;;;;;5013304;28;20065;-58
2021/07/30 04:55:02;;;;;;;16.00;14.07;;;23.80;84.00;;;;;;5014731;28;20034;-58
2021/07/30 04:57:29;;;;;;;16.20;11.95;;;23.90;83.90;;;;;;5016045;28;20378;-58
2021/07/30 04:59:55;;;;;;;14.60;13.05;;;23.90;83.60;;;;;;5015769;28;20053;-58
2021/07/30 05:02:21;;;;;;;16.25;12.40;;;23.90;83.40;;;;;;5015830;28;20045;-58
2021/07/30 05:04:48;;;;;;;12.90;11.38;;;24.00;83.20;;;;;;5016388;28;20054;-58
2021/07/30 05:07:14;;;;;;;16.50;12.30;;;24.00;83.20;;;;;;5016024;28;20030;-58
2021/07/30 05:09:41;;;;;;;12.98;11.65;;;24.10;82.70;;;;;;5016397;28;20335;-58
2021/07/30 05:12:07;;;;;;;13.65;12.35;;;24.10;82.20;;;;;;5015972;28;20391;-58
2021/07/30 05:14:34;;;;;;;13.60;12.13;;;24.10;81.90;;;;;;5016040;28;20042;-58
2021/07/30 05:17:00;;;;;;;14.52;11.57;;;24.00;82.10;;;;;;5016306;28;20050;-58
2021/07/30 05:19:27;;;;;;;13.15;11.75;;;23.90;82.60;;;;;;5016192;28;20049;-58
2021/07/30 05:21:53;;;;;;;17.75;13.15;;;24.00;82.20;;;;;;5015590;28;20044;-58
2021/07/30 05:24:19;;;;;;;18.63;11.63;;;24.00;82.40;;;;;;5015665;28;20514;-58
2021/07/30 05:26:46;;;;;;;16.83;11.45;;;24.10;82.10;;;;;;5015727;28;20482;-59
2021/07/30 05:29:12;;;;;;;13.48;12.02;;;24.20;81.90;;;;;;5015595;28;20046;-58
2021/07/30 05:31:39;;;;;;;19.27;12.07;;;24.20;81.40;;;;;;5016277;28;20046;-58
2021/07/30 05:34:05;;;;;;;15.45;11.68;;;24.30;80.90;;;;;;5015230;28;20038;-58
2021/07/30 05:36:31;;;;;;;13.90;11.55;;;24.30;80.90;;;;;;5015612;28;20041;-58
2021/07/30 05:38:58;;;;;;;11.82;10.55;;;24.20;80.90;;;;;;5015288;28;20053;-58
2021/07/30 05:41:24;;;;;;;14.50;12.10;;;24.30;81.00;;;;;;5015527;28;20048;-58
2021/07/30 05:43:51;;;;;;;12.80;10.93;;;24.40;81.00;;;;;;5015544;28;20050;-58
2021/07/30 05:46:20;;;;;;;11.80;10.15;;;24.40;80.50;;;;;;5015059;28;20042;-58
2021/07/30 05:48:47;;;;;;;12.77;11.35;;;24.30;80.10;;;;;;5015019;28;20056;-59
2021/07/30 05:51:14;;;;;;;16.63;11.15;;;24.20;80.60;;;;;;5015083;28;20042;-58
2021/07/30 05:53:41;;;;;;;13.30;12.00;;;24.20;80.60;;;;;;5015177;28;20065;-58
2021/07/30 05:56:07;;;;;;;15.82;11.20;;;24.20;81.40;;;;;;5014558;28;20045;-58
2021/07/30 05:58:34;;;;;;;15.43;12.23;;;24.20;82.40;;;;;;5015517;28;20041;-58
2021/07/30 06:01:01;;;;;;;13.82;12.43;;;24.20;83.40;;;;;;5015194;28;20474;-58
2021/07/30 06:03:27;;;;;;;16.27;11.30;;;24.20;83.90;;;;;;5014727;28;20073;-58
2021/07/30 06:05:54;;;;;;;15.20;12.25;;;24.00;84.90;;;;;;5015110;28;20164;-58
2021/07/30 06:08:20;;;;;;;15.23;12.30;;;23.90;85.60;;;;;;5014639;28;20050;-57
2021/07/30 06:11:04;;;;;;;15.45;12.55;;;23.90;85.90;;;;;;5014967;28;20026;-57
2021/07/30 06:13:31;;;;;;;14.02;11.73;;;24.00;85.20;;;;;;5014778;28;20041;-58
2021/07/30 06:15:57;;;;;;;17.83;12.52;;;24.00;84.30;;;;;;5014756;28;20057;-58
2021/07/30 06:18:24;;;;;;;14.73;12.48;;;24.00;84.30;;;;;;5014500;28;20037;-58
2021/07/30 06:20:51;;;;;;;16.80;12.85;;;24.00;84.50;;;;;;5014538;28;20041;-58
2021/07/30 06:23:17;;;;;;;16.88;13.70;;;23.80;86.00;;;;;;5014381;28;20038;-58
2021/07/30 06:25:45;;;;;;;14.90;13.43;;;23.70;87.70;;;;;;5014844;28;20037;-58
2021/07/30 06:28:11;;;;;;;22.85;12.68;;;23.50;88.60;;;;;;5014521;28;20042;-58
2021/07/30 06:30:38;;;;;;;17.63;13.50;;;23.50;90.40;;;;;;5013833;28;20058;-58
2021/07/30 06:33:10;;;;;;;17.13;12.82;;;23.40;90.50;;;;;;5014489;28;20046;-58
2021/07/30 06:35:37;;;;;;;18.25;13.65;;;23.50;90.90;;;;;;5013862;28;20048;-58
2021/07/30 06:38:04;;;;;;;18.73;14.60;;;23.50;91.10;;;;;;5014330;28;20644;-58
2021/07/30 06:40:30;;;;;;;18.73;14.43;;;23.60;92.10;;;;;;5014652;28;20040;-58
2021/07/30 06:42:57;;;;;;;17.23;13.65;;;23.60;91.90;;;;;;5014198;28;20041;-58
2021/07/30 06:45:24;;;;;;;16.77;14.85;;;23.50;91.60;;;;;;5014262;28;20034;-58
2021/07/30 06:47:50;;;;;;;16.13;13.00;;;23.50;92.80;;;;;;5014141;28;20037;-58
2021/07/30 06:50:17;;;;;;;15.95;13.18;;;23.50;92.40;;;;;;5013507;28;20509;-58
2021/07/30 06:52:43;;;;;;;19.38;12.95;;;23.50;92.60;;;;;;5013975;28;20053;-58
2021/07/30 06:55:10;;;;;;;13.77;12.13;;;23.40;91.10;;;;;;5013724;28;20057;-58
2021/07/30 06:57:36;;;;;;;18.45;12.93;;;23.50;91.50;;;;;;5013529;28;20061;-58
2021/07/30 07:00:04;;;;;;;14.05;11.20;;;23.50;92.00;;;;;;5013792;28;20038;-58
2021/07/30 07:02:30;;;;;;;15.43;13.35;;;23.50;92.30;;;;;;5013313;28;20057;-58
2021/07/30 07:04:57;;;;;;;14.63;11.77;;;23.40;92.50;;;;;;5013256;28;20494;-58
2021/07/30 07:07:24;;;;;;;18.15;12.40;;;23.40;92.40;;;;;;5013285;28;20049;-58
2021/07/30 07:09:52;;;;;;;14.98;13.38;;;23.30;91.50;;;;;;5013208;28;20053;-58
2021/07/30 07:12:18;;;;;;;14.90;12.82;;;23.30;92.30;;;;;;5013890;28;20030;-57
2021/07/30 07:14:47;;;;;;;17.00;12.88;;;23.30;92.80;;;;;;5013037;28;20058;-57
2021/07/30 07:17:15;;;;;;;20.55;12.82;;;23.30;93.10;;;;;;5013182;28;20044;-58
2021/07/30 07:19:43;;;;;;;16.55;13.63;;;23.30;93.40;;;;;;5012744;28;20053;-58
2021/07/30 07:22:10;;;;;;;16.48;14.65;;;23.30;94.20;;;;;;5012173;28;20041;-58
2021/07/30 07:24:40;;;;;;;16.73;13.38;;;23.20;95.50;;;;;;5012650;28;20038;-58
2021/07/30 07:27:07;;;;;;;;;;;23.20;95.70;;;;;;5014070;28;20038;-58
2021/07/30 07:29:33;;;;;;;18.38;13.15;;;23.20;94.90;;;;;;5013386;28;20271;-57
2021/07/30 07:32:01;;;;;;;13.85;12.35;;;23.30;94.40;;;;;;5013419;28;20034;-58
2021/07/30 07:34:27;;;;;;;19.80;13.60;;;23.30;94.00;;;;;;5013014;28;20034;-58
2021/07/30 07:36:53;;;;;;;16.92;14.05;;;23.20;93.90;;;;;;5012514;28;20053;-57
2021/07/30 07:39:20;;;;;;;18.60;14.02;;;23.20;94.00;;;;;;5013010;28;20112;-57
2021/07/30 07:41:47;;;;;;;19.25;13.60;;;23.10;93.90;;;;;;5013181;28;20030;-57
2021/07/30 07:44:15;;;;;;;20.67;15.05;;;23.10;95.60;;;;;;5012763;28;20058;-57
2021/07/30 07:46:45;;;;;;;19.13;13.73;;;23.10;95.30;;;;;;5013144;28;20029;-58
2021/07/30 07:49:12;;;;;;;18.63;14.15;;;23.10;95.10;;;;;;5012984;28;20054;-58
2021/07/30 07:51:38;;;;;;;18.65;13.10;;;23.10;95.00;;;;;;5013275;28;20038;-59
2021/07/30 07:54:05;;;;;;;15.02;13.30;;;23.20;95.10;;;;;;5012910;28;20045;-60
2021/07/30 07:56:31;;;;;;;14.00;11.00;;;23.30;95.10;;;;;;5011922;28;20037;-61
2021/07/30 07:58:58;;;;;;;17.42;13.60;;;23.40;93.50;;;;;;5012855;28;20049;-60
2021/07/30 08:01:24;;;;;;;23.90;19.50;;;23.30;94.20;;;;;;5012488;28;20049;-63
2021/07/30 08:03:51;;;;;;;21.88;15.98;;;23.30;92.80;;;;;;5012829;28;20041;-63
2021/07/30 08:06:22;;;;;;;29.02;19.55;;;23.30;92.40;;;;;;5012632;28;20046;-60
2021/07/30 08:08:49;;;;;;;36.33;25.83;;;23.30;93.00;;;;;;5012778;28;20045;-61
2021/07/30 08:11:17;;;;;;;39.70;26.35;;;23.30;92.00;;;;;;5012525;28;20056;-62
2021/07/30 08:13:43;;;;;;;20.45;15.50;;;23.40;91.70;;;;;;5012648;28;20037;-60
2021/07/30 08:16:10;;;;;;;16.25;11.07;;;23.30;83.20;;;;;;5012650;28;20054;-60
2021/07/30 08:18:36;;;;;;;12.93;8.38;;;23.30;78.90;;;;;;5011595;28;20162;-60
2021/07/30 08:21:03;;;;;;;10.70;4.97;;;23.10;78.10;;;;;;5012638;28;20034;-60
2021/07/30 08:23:30;;;;;;;5.68;4.22;;;23.10;81.40;;;;;;5012941;28;20045;-61
2021/07/30 08:25:57;;;;;;;7.25;4.15;;;22.90;84.00;;;;;;5010990;28;20046;-61
2021/07/30 08:28:25;;;;;;;12.50;5.13;;;22.90;84.80;;;;;;5030994;28;20034;-62
2021/07/30 08:30:51;;;;;;;8.85;5.45;;;22.70;84.70;;;;;;5017025;28;20042;-66
2021/07/30 08:33:18;;;;;;;8.40;5.55;;;22.70;87.80;;;;;;5016497;28;20378;-62
2021/07/30 08:35:44;;;;;;;8.50;4.18;;;22.60;88.90;;;;;;5016611;28;20362;-62
2021/07/30 08:38:10;;;;;;;9.25;4.95;;;22.60;89.70;;;;;;5016222;28;20045;-60
2021/07/30 08:40:39;;;;;;;10.10;6.10;;;22.50;91.20;;;;;;5015455;28;20034;-60
2021/07/30 08:43:05;;;;;;;15.10;6.38;;;22.60;90.90;;;;;;5014503;28;20057;-60
2021/07/30 08:45:32;;;;;;;18.50;8.00;;;22.60;90.40;;;;;;5014857;28;20042;-60
2021/07/30 08:48:02;;;;;;;9.38;5.00;;;22.60;90.10;;;;;;5014712;28;20049;-60
2021/07/30 08:50:29;;;;;;;7.25;4.55;;;22.50;90.70;;;;;;5014810;28;20053;-60
2021/07/30 08:52:56;;;;;;;6.97;4.70;;;22.40;91.40;;;;;;5014817;28;20046;-60
2021/07/30 08:55:30;;;;;;;8.02;6.00;;;22.50;91.30;;;;;;5015377;28;20044;-67
2021/07/30 08:57:56;;;;;;;9.50;5.65;;;22.50;91.10;;;;;;5012011;28;20037;-60
2021/07/30 09:00:24;;;;;;;9.55;5.35;;;22.50;91.00;;;;;;5013974;28;20029;-60
2021/07/30 09:02:50;;;;;;;8.88;5.43;;;22.60;90.00;;;;;;5014218;28;20046;-60
2021/07/30 09:05:24;;;;;;;7.72;4.22;;;22.60;90.40;;;;;;5015549;28;20030;-60
2021/07/30 09:07:51;;;;;;;8.30;3.58;;;22.60;90.30;;;;;;5014776;28;20041;-59
2021/07/30 09:10:27;;;;;;;10.57;3.25;;;22.70;90.60;;;;;;5015776;28;20363;-61
2021/07/30 09:13:30;;;;;;;10.65;4.07;;;22.80;91.50;;;;;;5015720;28;20410;-59
2021/07/30 09:16:08;;;;;;;9.32;4.55;;;23.10;90.60;;;;;;4993191;28;20054;-58
2021/07/30 09:18:38;;;;;;;6.75;4.03;;;23.20;89.80;;;;;;5012564;28;20045;-58
2021/07/30 09:21:24;;;;;;;6.85;3.33;;;23.40;88.40;;;;;;5015524;28;20041;-58
2021/07/30 09:24:06;;;;;;;4.85;2.50;;;23.60;87.00;;;;;;5014302;28;20124;-58
2021/07/30 09:26:45;;;;;;;4.55;1.98;;;23.90;87.00;;;;;;5014811;28;20041;-59
2021/07/30 09:29:17;;;;;;;5.03;1.60;;;24.00;83.50;;;;;;5029845;28;20030;-58
2021/07/30 09:31:52;;;;;;;5.05;2.08;;;24.10;82.90;;;;;;5015819;28;20038;-58
2021/07/30 09:34:37;;;;;;;5.35;2.72;;;24.40;84.60;;;;;;5014944;28;20049;-58
2021/07/30 09:37:17;;;;;;;4.97;2.00;;;24.60;84.80;;;;;;5012445;28;20049;-58
2021/07/30 09:39:46;;;;;;;4.07;1.93;;;24.70;82.90;;;;;;5016646;28;20118;-59
2021/07/30 09:42:14;;;;;;;2.63;1.60;;;24.70;81.90;;;;;;5035609;28;20280;-58
2021/07/30 09:44:49;;;;;;;5.13;1.80;;;24.90;77.90;;;;;;5034460;28;20470;-59
2021/07/30 09:47:24;;;;;;;3.33;1.75;;;25.10;79.10;;;;;;5034951;28;20056;-59
2021/07/30 09:49:55;;;;;;;2.97;1.73;;;25.10;77.80;;;;;;5034884;28;20465;-59
2021/07/30 09:52:30;;;;;;;2.67;1.60;;;25.20;77.60;;;;;;5034071;28;20044;-58
2021/07/30 09:55:00;;;;;;;3.83;2.38;;;25.30;74.00;;;;;;5034803;28;20026;-59
2021/07/30 09:57:28;;;;;;;;;;;25.40;73.30;;;;;;5035037;28;20413;-59
2021/07/30 09:59:59;;;;;;;7.40;1.92;;;25.50;71.40;;;;;;5033918;28;19913;-59
2021/07/30 10:02:28;;;;;;;5.20;1.90;;;25.60;70.50;;;;;;5034609;28;20048;-59
2021/07/30 10:04:54;;;;;;;2.58;1.40;;;25.70;68.60;;;;;;5034507;28;20049;-59
2021/07/30 10:07:25;;;;;;;1.95;1.42;;;25.80;69.50;;;;;;5033203;28;20045;-59
2021/07/30 10:10:23;;;;;;;2.20;1.25;;;26.00;69.00;;;;;;5033949;28;20029;-58
2021/07/30 10:12:53;;;;;;;3.55;2.00;;;25.90;65.20;;;;;;5032898;28;20494;-59
2021/07/30 10:15:20;;;;;;;4.30;1.87;;;26.00;65.60;;;;;;5033583;28;20065;-59
2021/07/30 10:17:47;;;;;;;2.10;1.60;;;26.20;65.20;;;;;;5034045;28;20045;-59
2021/07/30 10:20:21;;;;;;;3.13;1.75;;;26.30;62.10;;;;;;5034248;28;20053;-59
2021/07/30 10:23:08;;;;;;;3.05;1.92;;;26.50;62.80;;;;;;5034402;28;20041;-59
2021/07/30 10:25:37;;;;;;;3.38;2.38;;;26.50;60.70;;;;;;5034375;28;20373;-59
2021/07/30 10:28:18;;;;;;;4.63;2.13;;;26.60;60.50;;;;;;5032357;28;20034;-59
2021/07/30 10:30:58;;;;;;;2.75;1.90;;;26.60;59.00;;;;;;5033678;28;20029;-59
2021/07/30 10:33:48;;;;;;;4.68;2.08;;;26.60;59.40;;;;;;5033823;28;20492;-59
2021/07/30 10:36:30;;;;;;;2.85;1.83;;;26.60;60.20;;;;;;5028031;28;20049;-59
2021/07/30 10:39:25;;;;;;;2.63;1.80;;;26.80;59.90;;;;;;5033512;28;20022;-58
2021/07/30 10:42:10;;;;;;;4.22;2.30;;;26.80;58.00;;;;;;5024709;28;20390;-58
2021/07/30 10:45:17;;;;;;;7.57;2.30;;;26.80;59.60;;;;;;5033110;28;20038;-58
2021/07/30 10:47:44;;;;;;;3.67;2.38;;;26.90;60.00;;;;;;5033347;28;20025;-58
2021/07/30 10:50:41;;;;;;;4.40;2.42;;;27.00;59.70;;;;;;5032460;28;20385;-59
2021/07/30 10:53:39;;;;;;;3.42;1.70;;;27.00;57.40;;;;;;5033294;28;20406;-59
2021/07/30 10:56:29;;;;;;;3.40;2.00;;;27.00;57.60;;;;;;5033590;28;20060;-58
2021/07/30 10:58:57;;;;;;;3.40;2.75;;;27.10;58.10;;;;;;5032759;28;20042;-58
2021/07/30 11:01:27;;;;;;;3.65;2.53;;;27.20;58.40;;;;;;5032909;28;20427;-58
2021/07/30 11:03:54;;;;;;;;;;;27.30;58.50;;;;;;5032127;28;20047;-58
2021/07/30 11:06:24;;;;;;;3.42;2.40;;;27.30;57.60;;;;;;5032685;28;19916;-58
2021/07/30 11:09:03;;;;;;;3.45;2.15;;;27.30;56.40;;;;;;5032497;28;20037;-58
2021/07/30 11:11:42;;;;;;;4.03;2.75;;;27.40;56.30;;;;;;5033313;28;20056;-58
2021/07/30 11:14:13;;;;;;;4.10;2.33;;;27.50;56.50;;;;;;5031596;28;20056;-58
2021/07/30 11:16:42;;;;;;;4.38;2.33;;;27.50;56.90;;;;;;5033031;28;20032;-58
2021/07/30 11:19:09;;;;;;;3.10;2.30;;;27.60;56.60;;;;;;5032886;28;20488;-57
2021/07/30 11:21:36;;;;;;;3.75;2.65;;;27.60;56.50;;;;;;5031182;28;20056;-58
2021/07/30 11:24:04;;;;;;;4.25;2.60;;;27.70;54.80;;;;;;5033330;28;20382;-58
2021/07/30 11:26:35;;;;;;;4.07;2.30;;;27.70;55.00;;;;;;5033091;28;20384;-57
2021/07/30 11:29:06;;;;;;;6.18;2.80;;;27.60;55.40;;;;;;5031599;28;20038;-59
2021/07/30 11:31:32;;;;;;;18.02;13.88;;;27.80;55.50;;;;;;5032929;28;20030;-59
2021/07/30 11:33:59;;;;;;;13.30;9.15;;;27.70;56.30;;;;;;5032886;28;20033;-59
2021/07/30 11:36:25;;;;;;;16.00;8.43;;;27.80;56.00;;;;;;5032023;28;20037;-61
2021/07/30 11:38:54;;;;;;;10.20;7.22;;;27.80;55.80;;;;;;5032702;28;20556;-59
2021/07/30 11:41:22;;;;;;;12.55;8.55;;;27.90;55.50;;;;;;5032692;28;20033;-60
2021/07/30 11:44:01;;;;;;;6.68;5.03;;;27.90;55.50;;;;;;5032242;28;20143;-59
2021/07/30 11:46:31;;;;;;;7.78;3.90;;;27.90;59.20;;;;;;5031351;28;20580;-59
2021/07/30 11:49:02;;;;;;;5.25;3.40;;;27.90;61.40;;;;;;5032961;28;20044;-60
2021/07/30 11:51:29;;;;;;;5.93;2.78;;;27.90;61.80;;;;;;5017471;28;20042;-59
2021/07/30 11:53:56;;;;;;;5.88;3.88;;;28.00;62.40;;;;;;5011876;28;20026;-59
2021/07/30 11:56:23;;;;;;;7.28;4.53;;;28.00;64.30;;;;;;5011752;28;20038;-59
2021/07/30 11:59:03;;;;;;;9.10;3.95;;;27.80;65.20;;;;;;5009179;28;20042;-59
2021/07/30 12:01:31;;;;;;;4.72;3.42;;;27.90;65.10;;;;;;5024546;28;20414;-57
2021/07/30 12:04:13;;;;;;;6.35;3.90;;;28.00;63.70;;;;;;5010180;28;20045;-60
2021/07/30 12:06:41;;;;;;;7.30;3.75;;;28.00;63.80;;;;;;5010131;28;20022;-59
2021/07/30 12:09:11;;;;;;;6.85;3.85;;;28.00;63.80;;;;;;5010243;28;20049;-62
2021/07/30 12:11:41;;;;;;;6.43;4.57;;;28.00;62.80;;;;;;5010900;28;20049;-61
2021/07/30 12:14:10;;;;;;;6.90;3.85;;;28.10;63.20;;;;;;5010902;28;20042;-61
2021/07/30 12:16:40;;;;;;;5.43;3.78;;;28.10;63.60;;;;;;5001065;28;20034;-62
2021/07/30 12:19:06;;;;;;;5.95;4.53;;;28.20;64.10;;;;;;5024448;28;20034;-61
2021/07/30 12:21:33;;;;;;;6.43;4.30;;;28.00;64.70;;;;;;5009227;28;20034;-64
2021/07/30 12:24:07;;;;;;;7.65;4.57;;;28.00;64.00;;;;;;5009582;28;20038;-62
2021/07/30 12:26:37;;;;;;;6.03;4.28;;;28.00;63.50;;;;;;5001435;28;20026;-64
2021/07/30 12:29:04;;;;;;;;;;;28.00;63.80;;;;;;5000436;28;20034;-63
2021/07/30 12:31:31;;;;;;;7.10;5.80;;;28.10;64.50;;;;;;5001691;28;20373;-61
2021/07/30 12:34:17;;;;;;;7.85;4.97;;;28.20;64.50;;;;;;4997596;28;20329;-64
2021/07/30 12:36:43;;;;;;;6.38;5.30;;;28.30;64.10;;;;;;4991644;28;20026;-63
2021/07/30 12:39:11;;;;;;;6.78;5.05;;;28.30;64.40;;;;;;4992709;28;20035;-64
2021/07/30 12:41:37;;;;;;;6.80;5.65;;;28.30;65.00;;;;;;4992181;28;20037;-65
2021/07/30 12:44:14;;;;;;;8.18;5.70;;;28.20;65.30;;;;;;4991290;28;20054;-74
2021/07/30 12:46:48;;;;;;;8.35;5.55;;;28.10;65.80;;;;;;4992542;28;20033;-69